sensor_id;sensor_type;location;lat;lon;timestamp;temperature;humidity
5017;DHT22;2527;50.892;16.706;2023-09-19T00:00:23;21.80;99.90
5017;DHT22;2527;50.892;16.706;2023-09-19T00:02:52;21.80;99.90
5017;DHT22;2527;50.892;16.706;2023-09-19T00:05:19;21.80;99.90
5017;DHT22;2527;50.892;16.706;2023-09-19T00:07:52;21.70;99.90
5017;DHT22;2527;50.892;16.706;2023-09-19T00:10:23;21.70;99.90
5017;DHT22;2527;50.892;16.706;2023-09-19T00:12:52;21.70;99.90
5017;DHT22;2527;50.892;16.706;2023-09-19T00:15:21;21.70;99.90
5017;DHT22;2527;50.892;16.706;2023-09-19T00:17:46;21.70;99.90
5017;DHT22;2527;50.892;16.706;2023-09-19T00:20:13;21.70;99.90
5017;DHT22;2527;50.892;16.706;2023-09-19T00:22:40;21.70;99.90
5017;DHT22;2527;50.892;16.706;2023-09-19T00:25:07;21.70;99.90
5017;DHT22;2527;50.892;16.706;2023-09-19T00:27:32;21.60;99.90
5017;DHT22;2527;50.892;16.706;2023-09-19T00:30:01;21.60;99.90
5017;DHT22;2527;50.892;16.706;2023-09-19T00:32:26;21.60;99.90
5017;DHT22;2527;50.892;16.706;2023-09-19T00:34:57;21.60;99.90
5017;DHT22;2527;50.892;16.706;2023-09-19T00:37:23;21.60;99.90
5017;DHT22;2527;50.892;16.706;2023-09-19T00:39:50;21.60;99.90
5017;DHT22;2527;50.892;16.706;2023-09-19T00:42:21;21.50;99.90
5017;DHT22;2527;50.892;16.706;2023-09-19T00:44:47;21.50;99.90
5017;DHT22;2527;50.892;16.706;2023-09-19T00:47:13;21.50;99.90
5017;DHT22;2527;50.892;16.706;2023-09-19T00:49:45;21.50;99.90
5017;DHT22;2527;50.892;16.706;2023-09-19T00:52:16;21.50;99.90
5017;DHT22;2527;50.892;16.706;2023-09-19T00:54:45;21.50;99.90
5017;DHT22;2527;50.892;16.706;2023-09-19T00:57:11;21.50;99.90
5017;DHT22;2527;50.892;16.706;2023-09-19T00:59:37;21.40;99.90
5017;DHT22;2527;50.892;16.706;2023-09-19T01:02:02;21.40;99.90
5017;DHT22;2527;50.892;16.706;2023-09-19T01:04:29;22.70;99.90
5017;DHT22;2527;50.892;16.706;2023-09-19T01:06:54;21.40;99.90
5017;DHT22;2527;50.892;16.706;2023-09-19T01:09:20;21.40;99.90
5017;DHT22;2527;50.892;16.706;2023-09-19T01:11:47;21.40;99.90
5017;DHT22;2527;50.892;16.706;2023-09-19T01:29:51;21.20;99.90
5017;DHT22;2527;50.892;16.706;2023-09-19T01:32:17;21.20;99.90
5017;DHT22;2527;50.892;16.706;2023-09-19T01:37:16;21.20;99.90
5017;DHT22;2527;50.892;16.706;2023-09-19T01:39:52;21.20;99.90
5017;DHT22;2527;50.892;16.706;2023-09-19T01:42:29;21.10;99.90
5017;DHT22;2527;50.892;16.706;2023-09-19T01:45:03;21.10;99.90
5017;DHT22;2527;50.892;16.706;2023-09-19T01:47:33;21.10;99.90
5017;DHT22;2527;50.892;16.706;2023-09-19T01:52:52;21.10;99.90
5017;DHT22;2527;50.892;16.706;2023-09-19T01:55:19;21.10;99.90
5017;DHT22;2527;50.892;16.706;2023-09-19T02:00:21;21.00;99.90
5017;DHT22;2527;50.892;16.706;2023-09-19T02:02:49;21.00;99.90
5017;DHT22;2527;50.892;16.706;2023-09-19T02:05:24;21.00;99.90
5017;DHT22;2527;50.892;16.706;2023-09-19T02:07:50;21.00;99.90
5017;DHT22;2527;50.892;16.706;2023-09-19T02:10:15;21.00;99.90
5017;DHT22;2527;50.892;16.706;2023-09-19T02:12:42;20.90;99.90
5017;DHT22;2527;50.892;16.706;2023-09-19T02:15:08;20.90;99.90
5017;DHT22;2527;50.892;16.706;2023-09-19T02:17:34;20.80;99.90
5017;DHT22;2527;50.892;16.706;2023-09-19T02:20:00;20.80;99.90
5017;DHT22;2527;50.892;16.706;2023-09-19T02:22:26;20.80;99.90
5017;DHT22;2527;50.892;16.706;2023-09-19T02:24:52;20.80;99.90
5017;DHT22;2527;50.892;16.706;2023-09-19T02:27:19;20.80;99.90
5017;DHT22;2527;50.892;16.706;2023-09-19T02:29:44;20.80;99.90
5017;DHT22;2527;50.892;16.706;2023-09-19T02:32:10;20.80;99.90
5017;DHT22;2527;50.892;16.706;2023-09-19T02:34:36;20.80;99.90
5017;DHT22;2527;50.892;16.706;2023-09-19T02:37:10;20.70;99.90
5017;DHT22;2527;50.892;16.706;2023-09-19T02:39:38;20.70;99.90
5017;DHT22;2527;50.892;16.706;2023-09-19T02:42:04;20.70;99.90
5017;DHT22;2527;50.892;16.706;2023-09-19T02:44:30;20.70;99.90
5017;DHT22;2527;50.892;16.706;2023-09-19T02:46:55;20.70;99.90
5017;DHT22;2527;50.892;16.706;2023-09-19T02:49:22;20.70;99.90
5017;DHT22;2527;50.892;16.706;2023-09-19T02:51:48;20.70;99.90
5017;DHT22;2527;50.892;16.706;2023-09-19T02:54:14;20.70;99.90
5017;DHT22;2527;50.892;16.706;2023-09-19T02:56:41;20.70;99.90
5017;DHT22;2527;50.892;16.706;2023-09-19T02:59:06;20.70;99.90
5017;DHT22;2527;50.892;16.706;2023-09-19T03:01:32;20.60;99.90
5017;DHT22;2527;50.892;16.706;2023-09-19T03:03:58;20.60;99.90
5017;DHT22;2527;50.892;16.706;2023-09-19T03:06:24;20.70;99.90
5017;DHT22;2527;50.892;16.706;2023-09-19T03:08:50;20.60;99.90
5017;DHT22;2527;50.892;16.706;2023-09-19T03:11:17;20.60;99.90
5017;DHT22;2527;50.892;16.706;2023-09-19T03:13:50;20.60;99.90
5017;DHT22;2527;50.892;16.706;2023-09-19T03:16:17;20.60;99.90
5017;DHT22;2527;50.892;16.706;2023-09-19T03:18:43;20.60;99.90
5017;DHT22;2527;50.892;16.706;2023-09-19T03:21:08;20.60;99.90
5017;DHT22;2527;50.892;16.706;2023-09-19T03:23:35;20.60;99.90
5017;DHT22;2527;50.892;16.706;2023-09-19T03:26:00;20.50;99.90
5017;DHT22;2527;50.892;16.706;2023-09-19T03:28:26;20.50;99.90
5017;DHT22;2527;50.892;16.706;2023-09-19T03:30:58;20.50;99.90
5017;DHT22;2527;50.892;16.706;2023-09-19T03:33:25;20.50;99.90
5017;DHT22;2527;50.892;16.706;2023-09-19T03:35:53;20.50;99.90
5017;DHT22;2527;50.892;16.706;2023-09-19T03:38:19;20.50;99.90
5017;DHT22;2527;50.892;16.706;2023-09-19T03:40:45;20.50;99.90
5017;DHT22;2527;50.892;16.706;2023-09-19T03:43:11;20.50;99.90
5017;DHT22;2527;50.892;16.706;2023-09-19T03:45:37;20.50;99.90
5017;DHT22;2527;50.892;16.706;2023-09-19T03:48:10;20.50;99.90
5017;DHT22;2527;50.892;16.706;2023-09-19T03:50:35;20.40;99.90
5017;DHT22;2527;50.892;16.706;2023-09-19T03:53:01;20.40;99.90
5017;DHT22;2527;50.892;16.706;2023-09-19T03:55:27;20.40;99.90
5017;DHT22;2527;50.892;16.706;2023-09-19T03:57:53;20.40;99.90
5017;DHT22;2527;50.892;16.706;2023-09-19T04:00:18;20.40;99.90
5017;DHT22;2527;50.892;16.706;2023-09-19T04:02:49;20.40;99.90
5017;DHT22;2527;50.892;16.706;2023-09-19T04:05:15;20.40;99.90
5017;DHT22;2527;50.892;16.706;2023-09-19T04:07:40;20.40;99.90
5017;DHT22;2527;50.892;16.706;2023-09-19T04:10:06;20.40;99.90
5017;DHT22;2527;50.892;16.706;2023-09-19T04:12:34;20.30;99.90
5017;DHT22;2527;50.892;16.706;2023-09-19T04:15:00;20.30;99.90
5017;DHT22;2527;50.892;16.706;2023-09-19T04:17:26;20.30;99.90
5017;DHT22;2527;50.892;16.706;2023-09-19T04:19:52;20.30;99.90
5017;DHT22;2527;50.892;16.706;2023-09-19T04:22:18;20.30;99.90
5017;DHT22;2527;50.892;16.706;2023-09-19T04:24:44;20.20;99.90
5017;DHT22;2527;50.892;16.706;2023-09-19T04:27:09;20.20;99.90
5017;DHT22;2527;50.892;16.706;2023-09-19T04:29:35;20.20;99.90
5017;DHT22;2527;50.892;16.706;2023-09-19T04:32:01;20.20;99.90
5017;DHT22;2527;50.892;16.706;2023-09-19T04:34:29;20.20;99.90
5017;DHT22;2527;50.892;16.706;2023-09-19T04:36:55;20.20;99.90
5017;DHT22;2527;50.892;16.706;2023-09-19T04:39:23;20.20;99.90
5017;DHT22;2527;50.892;16.706;2023-09-19T04:41:51;20.20;99.90
5017;DHT22;2527;50.892;16.706;2023-09-19T04:44:16;20.10;99.90
5017;DHT22;2527;50.892;16.706;2023-09-19T04:46:43;20.10;99.90
5017;DHT22;2527;50.892;16.706;2023-09-19T04:49:09;20.10;99.90
5017;DHT22;2527;50.892;16.706;2023-09-19T04:51:35;20.10;99.90
5017;DHT22;2527;50.892;16.706;2023-09-19T04:54:01;20.10;99.90
5017;DHT22;2527;50.892;16.706;2023-09-19T04:56:28;20.10;99.90
5017;DHT22;2527;50.892;16.706;2023-09-19T04:58:55;20.10;99.90
5017;DHT22;2527;50.892;16.706;2023-09-19T05:01:21;20.10;99.90
5017;DHT22;2527;50.892;16.706;2023-09-19T05:03:48;20.10;99.90
5017;DHT22;2527;50.892;16.706;2023-09-19T05:06:20;19.30;99.90
5017;DHT22;2527;50.892;16.706;2023-09-19T05:08:47;20.10;99.90
5017;DHT22;2527;50.892;16.706;2023-09-19T05:11:19;20.10;99.90
5017;DHT22;2527;50.892;16.706;2023-09-19T05:13:48;20.10;99.90
5017;DHT22;2527;50.892;16.706;2023-09-19T05:16:16;20.10;99.90
5017;DHT22;2527;50.892;16.706;2023-09-19T05:18:41;20.10;99.90
5017;DHT22;2527;50.892;16.706;2023-09-19T05:21:07;20.10;99.90
5017;DHT22;2527;50.892;16.706;2023-09-19T05:23:33;20.20;99.90
5017;DHT22;2527;50.892;16.706;2023-09-19T05:25:59;20.20;99.90
5017;DHT22;2527;50.892;16.706;2023-09-19T05:28:25;20.90;99.90
5017;DHT22;2527;50.892;16.706;2023-09-19T05:30:52;20.30;99.90
5017;DHT22;2527;50.892;16.706;2023-09-19T05:33:18;20.30;99.90
5017;DHT22;2527;50.892;16.706;2023-09-19T05:35:44;20.40;99.90
5017;DHT22;2527;50.892;16.706;2023-09-19T05:38:12;20.50;99.90
5017;DHT22;2527;50.892;16.706;2023-09-19T05:40:39;20.60;99.90
5017;DHT22;2527;50.892;16.706;2023-09-19T05:43:11;20.70;99.90
5017;DHT22;2527;50.892;16.706;2023-09-19T05:45:38;22.00;99.90
5017;DHT22;2527;50.892;16.706;2023-09-19T05:48:07;20.90;99.90
5017;DHT22;2527;50.892;16.706;2023-09-19T05:50:33;20.90;99.90
5017;DHT22;2527;50.892;16.706;2023-09-19T05:52:59;21.00;99.90
5017;DHT22;2527;50.892;16.706;2023-09-19T05:55:25;21.00;99.90
5017;DHT22;2527;50.892;16.706;2023-09-19T05:57:51;21.00;99.90
5017;DHT22;2527;50.892;16.706;2023-09-19T06:00:17;20.90;99.90
5017;DHT22;2527;50.892;16.706;2023-09-19T06:02:44;20.90;99.90
5017;DHT22;2527;50.892;16.706;2023-09-19T06:05:10;20.80;99.90
5017;DHT22;2527;50.892;16.706;2023-09-19T06:07:36;20.80;99.90
5017;DHT22;2527;50.892;16.706;2023-09-19T06:10:03;20.70;99.90
5017;DHT22;2527;50.892;16.706;2023-09-19T06:12:31;20.70;99.90
5017;DHT22;2527;50.892;16.706;2023-09-19T06:14:59;20.70;99.90
5017;DHT22;2527;50.892;16.706;2023-09-19T06:17:24;20.70;99.90
5017;DHT22;2527;50.892;16.706;2023-09-19T06:19:52;20.70;99.90
5017;DHT22;2527;50.892;16.706;2023-09-19T06:22:18;20.70;99.90
5017;DHT22;2527;50.892;16.706;2023-09-19T06:24:44;20.70;99.90
5017;DHT22;2527;50.892;16.706;2023-09-19T06:27:09;20.70;99.90
5017;DHT22;2527;50.892;16.706;2023-09-19T06:29:35;20.70;99.90
5017;DHT22;2527;50.892;16.706;2023-09-19T06:32:06;20.80;99.90
5017;DHT22;2527;50.892;16.706;2023-09-19T06:34:34;20.80;99.90
5017;DHT22;2527;50.892;16.706;2023-09-19T06:36:59;20.80;99.90
5017;DHT22;2527;50.892;16.706;2023-09-19T06:39:25;20.90;99.90
5017;DHT22;2527;50.892;16.706;2023-09-19T06:41:52;21.00;99.90
5017;DHT22;2527;50.892;16.706;2023-09-19T06:44:20;21.00;99.90
5017;DHT22;2527;50.892;16.706;2023-09-19T06:46:47;21.10;99.90
5017;DHT22;2527;50.892;16.706;2023-09-19T06:49:16;21.10;99.90
5017;DHT22;2527;50.892;16.706;2023-09-19T06:51:42;21.10;99.90
5017;DHT22;2527;50.892;16.706;2023-09-19T06:54:09;21.10;99.90
5017;DHT22;2527;50.892;16.706;2023-09-19T06:56:35;21.10;99.90
5017;DHT22;2527;50.892;16.706;2023-09-19T06:59:00;21.20;99.90
5017;DHT22;2527;50.892;16.706;2023-09-19T07:01:27;21.20;99.90
5017;DHT22;2527;50.892;16.706;2023-09-19T07:03:53;21.30;99.90
5017;DHT22;2527;50.892;16.706;2023-09-19T07:06:19;21.40;99.90
5017;DHT22;2527;50.892;16.706;2023-09-19T07:08:44;21.50;99.90
5017;DHT22;2527;50.892;16.706;2023-09-19T07:11:10;21.50;99.90
5017;DHT22;2527;50.892;16.706;2023-09-19T07:13:38;21.50;99.90
5017;DHT22;2527;50.892;16.706;2023-09-19T07:16:03;21.50;99.90
5017;DHT22;2527;50.892;16.706;2023-09-19T07:18:29;21.50;99.90
5017;DHT22;2527;50.892;16.706;2023-09-19T07:20:58;21.50;99.90
5017;DHT22;2527;50.892;16.706;2023-09-19T07:23:30;21.50;99.90
5017;DHT22;2527;50.892;16.706;2023-09-19T07:26:03;21.50;99.90
5017;DHT22;2527;50.892;16.706;2023-09-19T07:28:30;21.50;99.90
5017;DHT22;2527;50.892;16.706;2023-09-19T07:30:56;21.50;99.90
5017;DHT22;2527;50.892;16.706;2023-09-19T07:33:21;21.40;99.90
5017;DHT22;2527;50.892;16.706;2023-09-19T07:35:47;21.40;99.90
5017;DHT22;2527;50.892;16.706;2023-09-19T07:38:13;21.40;99.90
5017;DHT22;2527;50.892;16.706;2023-09-19T07:40:39;21.30;99.90
5017;DHT22;2527;50.892;16.706;2023-09-19T07:43:05;21.40;99.90
5017;DHT22;2527;50.892;16.706;2023-09-19T07:45:32;21.30;99.90
5017;DHT22;2527;50.892;16.706;2023-09-19T07:47:58;21.30;99.90
5017;DHT22;2527;50.892;16.706;2023-09-19T07:50:25;21.30;99.90
5017;DHT22;2527;50.892;16.706;2023-09-19T07:52:52;21.30;99.90
5017;DHT22;2527;50.892;16.706;2023-09-19T07:55:20;21.40;99.90
5017;DHT22;2527;50.892;16.706;2023-09-19T07:57:49;21.20;99.90
5017;DHT22;2527;50.892;16.706;2023-09-19T08:00:14;21.40;99.90
5017;DHT22;2527;50.892;16.706;2023-09-19T08:02:40;21.40;99.90
5017;DHT22;2527;50.892;16.706;2023-09-19T08:05:08;21.50;99.90
5017;DHT22;2527;50.892;16.706;2023-09-19T08:07:41;21.50;99.90
5017;DHT22;2527;50.892;16.706;2023-09-19T08:10:06;21.50;99.90
5017;DHT22;2527;50.892;16.706;2023-09-19T08:12:40;21.50;99.90
5017;DHT22;2527;50.892;16.706;2023-09-19T08:15:16;21.50;99.90
5017;DHT22;2527;50.892;16.706;2023-09-19T08:17:42;21.50;99.90
5017;DHT22;2527;50.892;16.706;2023-09-19T08:20:09;21.60;99.90
5017;DHT22;2527;50.892;16.706;2023-09-19T08:22:48;21.60;99.90
5017;DHT22;2527;50.892;16.706;2023-09-19T08:25:15;21.50;99.90
5017;DHT22;2527;50.892;16.706;2023-09-19T08:27:43;21.50;99.90
5017;DHT22;2527;50.892;16.706;2023-09-19T08:30:13;21.60;99.90
5017;DHT22;2527;50.892;16.706;2023-09-19T08:32:39;21.60;99.90
5017;DHT22;2527;50.892;16.706;2023-09-19T08:35:08;21.70;99.90
5017;DHT22;2527;50.892;16.706;2023-09-19T08:37:34;21.70;99.90
5017;DHT22;2527;50.892;16.706;2023-09-19T08:40:00;21.70;99.90
5017;DHT22;2527;50.892;16.706;2023-09-19T08:42:25;21.80;99.90
5017;DHT22;2527;50.892;16.706;2023-09-19T08:44:52;21.80;99.90
5017;DHT22;2527;50.892;16.706;2023-09-19T08:47:30;21.80;99.90
5017;DHT22;2527;50.892;16.706;2023-09-19T08:52:27;21.90;99.90
5017;DHT22;2527;50.892;16.706;2023-09-19T08:54:53;22.00;99.90
5017;DHT22;2527;50.892;16.706;2023-09-19T08:57:23;22.00;99.90
5017;DHT22;2527;50.892;16.706;2023-09-19T08:59:48;22.10;99.90
5017;DHT22;2527;50.892;16.706;2023-09-19T09:02:15;22.20;99.90
5017;DHT22;2527;50.892;16.706;2023-09-19T09:04:41;22.30;99.90
5017;DHT22;2527;50.892;16.706;2023-09-19T09:07:12;22.30;99.90
5017;DHT22;2527;50.892;16.706;2023-09-19T09:09:44;22.40;99.90
5017;DHT22;2527;50.892;16.706;2023-09-19T09:12:14;22.50;99.90
5017;DHT22;2527;50.892;16.706;2023-09-19T09:14:44;22.60;99.90
5017;DHT22;2527;50.892;16.706;2023-09-19T09:17:10;22.70;99.90
5017;DHT22;2527;50.892;16.706;2023-09-19T09:19:37;22.70;99.90
5017;DHT22;2527;50.892;16.706;2023-09-19T09:22:07;22.80;99.90
5017;DHT22;2527;50.892;16.706;2023-09-19T09:24:33;22.90;99.90
5017;DHT22;2527;50.892;16.706;2023-09-19T09:26:59;22.90;99.90
5017;DHT22;2527;50.892;16.706;2023-09-19T09:29:45;22.90;99.90
5017;DHT22;2527;50.892;16.706;2023-09-19T09:32:22;22.90;99.90
5017;DHT22;2527;50.892;16.706;2023-09-19T09:34:48;22.90;99.90
5017;DHT22;2527;50.892;16.706;2023-09-19T09:37:15;22.80;99.90
5017;DHT22;2527;50.892;16.706;2023-09-19T09:39:48;22.80;99.90
5017;DHT22;2527;50.892;16.706;2023-09-19T09:42:35;22.80;99.90
5017;DHT22;2527;50.892;16.706;2023-09-19T09:45:14;22.80;99.90
5017;DHT22;2527;50.892;16.706;2023-09-19T09:47:47;22.80;99.90
5017;DHT22;2527;50.892;16.706;2023-09-19T09:52:55;22.70;99.90
5017;DHT22;2527;50.892;16.706;2023-09-19T09:55:28;22.70;99.90
5017;DHT22;2527;50.892;16.706;2023-09-19T10:00:52;22.70;99.90
5017;DHT22;2527;50.892;16.706;2023-09-19T10:03:21;22.70;99.90
5017;DHT22;2527;50.892;16.706;2023-09-19T10:05:52;22.70;99.90
5017;DHT22;2527;50.892;16.706;2023-09-19T10:08:20;22.70;99.90
5017;DHT22;2527;50.892;16.706;2023-09-19T10:10:46;22.60;99.90
5017;DHT22;2527;50.892;16.706;2023-09-19T10:13:18;22.60;99.90
5017;DHT22;2527;50.892;16.706;2023-09-19T10:15:47;22.60;99.90
5017;DHT22;2527;50.892;16.706;2023-09-19T10:18:23;22.70;99.90
5017;DHT22;2527;50.892;16.706;2023-09-19T10:20:49;22.80;99.90
5017;DHT22;2527;50.892;16.706;2023-09-19T10:23:17;22.90;99.90
5017;DHT22;2527;50.892;16.706;2023-09-19T10:25:48;22.90;99.90
5017;DHT22;2527;50.892;16.706;2023-09-19T10:28:14;22.90;99.90
5017;DHT22;2527;50.892;16.706;2023-09-19T10:30:44;22.90;99.90
5017;DHT22;2527;50.892;16.706;2023-09-19T10:33:13;22.90;99.90
5017;DHT22;2527;50.892;16.706;2023-09-19T10:35:42;22.90;99.90
5017;DHT22;2527;50.892;16.706;2023-09-19T10:38:10;22.90;99.90
5017;DHT22;2527;50.892;16.706;2023-09-19T10:40:36;22.80;99.90
5017;DHT22;2527;50.892;16.706;2023-09-19T10:43:06;22.80;99.90
5017;DHT22;2527;50.892;16.706;2023-09-19T10:45:35;22.80;99.90
5017;DHT22;2527;50.892;16.706;2023-09-19T10:48:01;22.70;99.90
5017;DHT22;2527;50.892;16.706;2023-09-19T10:50:32;22.70;99.90
5017;DHT22;2527;50.892;16.706;2023-09-19T10:53:00;22.70;99.90
5017;DHT22;2527;50.892;16.706;2023-09-19T10:55:31;22.80;99.90
5017;DHT22;2527;50.892;16.706;2023-09-19T10:57:58;22.80;99.90
5017;DHT22;2527;50.892;16.706;2023-09-19T11:00:58;22.90;99.90
5017;DHT22;2527;50.892;16.706;2023-09-19T11:03:34;22.90;99.90
5017;DHT22;2527;50.892;16.706;2023-09-19T11:08:30;23.10;99.90
5017;DHT22;2527;50.892;16.706;2023-09-19T11:10:58;23.10;99.90
5017;DHT22;2527;50.892;16.706;2023-09-19T11:13:28;23.20;99.90
5017;DHT22;2527;50.892;16.706;2023-09-19T11:26:41;23.10;99.90
5017;DHT22;2527;50.892;16.706;2023-09-19T11:29:26;23.00;99.90
5017;DHT22;2527;50.892;16.706;2023-09-19T11:31:52;23.00;99.90
5017;DHT22;2527;50.892;16.706;2023-09-19T11:34:37;23.00;99.90
5017;DHT22;2527;50.892;16.706;2023-09-19T11:39:37;23.10;99.90
5017;DHT22;2527;50.892;16.706;2023-09-19T11:42:48;23.10;99.90
5017;DHT22;2527;50.892;16.706;2023-09-19T11:44:52;23.60;99.90
5017;DHT22;2527;50.892;16.706;2023-09-19T11:47:23;23.10;99.90
5017;DHT22;2527;50.892;16.706;2023-09-19T11:49:50;23.20;99.90
5017;DHT22;2527;50.892;16.706;2023-09-19T11:52:22;23.20;99.90
5017;DHT22;2527;50.892;16.706;2023-09-19T11:54:54;23.20;99.90
5017;DHT22;2527;50.892;16.706;2023-09-19T11:57:22;23.30;99.90
5017;DHT22;2527;50.892;16.706;2023-09-19T11:59:48;23.30;99.90
5017;DHT22;2527;50.892;16.706;2023-09-19T12:02:17;23.40;99.90
5017;DHT22;2527;50.892;16.706;2023-09-19T12:04:53;23.40;99.90
5017;DHT22;2527;50.892;16.706;2023-09-19T12:07:19;23.50;99.90
5017;DHT22;2527;50.892;16.706;2023-09-19T12:12:19;23.50;99.90
5017;DHT22;2527;50.892;16.706;2023-09-19T12:14:48;23.60;99.90
5017;DHT22;2527;50.892;16.706;2023-09-19T12:17:14;23.60;99.90
5017;DHT22;2527;50.892;16.706;2023-09-19T12:19:49;23.60;99.90
5017;DHT22;2527;50.892;16.706;2023-09-19T12:22:15;23.60;99.90
5017;DHT22;2527;50.892;16.706;2023-09-19T12:24:43;23.50;99.90
5017;DHT22;2527;50.892;16.706;2023-09-19T12:27:09;23.50;99.90
5017;DHT22;2527;50.892;16.706;2023-09-19T12:29:47;23.50;99.90
5017;DHT22;2527;50.892;16.706;2023-09-19T12:32:16;23.50;99.90
5017;DHT22;2527;50.892;16.706;2023-09-19T12:34:50;23.50;99.90
5017;DHT22;2527;50.892;16.706;2023-09-19T12:37:16;23.50;99.90
5017;DHT22;2527;50.892;16.706;2023-09-19T12:39:53;23.50;99.90
5017;DHT22;2527;50.892;16.706;2023-09-19T12:42:22;23.50;99.90
5017;DHT22;2527;50.892;16.706;2023-09-19T12:44:49;23.50;99.90
5017;DHT22;2527;50.892;16.706;2023-09-19T12:47:17;23.40;99.90
5017;DHT22;2527;50.892;16.706;2023-09-19T12:52:47;23.40;99.90
5017;DHT22;2527;50.892;16.706;2023-09-19T12:55:24;23.30;99.90
5017;DHT22;2527;50.892;16.706;2023-09-19T12:58:01;23.30;99.90
5017;DHT22;2527;50.892;16.706;2023-09-19T13:00:40;23.30;99.90
5017;DHT22;2527;50.892;16.706;2023-09-19T13:06:14;23.30;99.90
5017;DHT22;2527;50.892;16.706;2023-09-19T13:08:38;23.20;99.90
5017;DHT22;2527;50.892;16.706;2023-09-19T13:11:11;23.20;99.90
5017;DHT22;2527;50.892;16.706;2023-09-19T13:13:45;23.20;99.90
5017;DHT22;2527;50.892;16.706;2023-09-19T13:16:14;23.20;99.90
5017;DHT22;2527;50.892;16.706;2023-09-19T13:18:47;23.10;99.90
5017;DHT22;2527;50.892;16.706;2023-09-19T13:21:16;23.10;99.90
5017;DHT22;2527;50.892;16.706;2023-09-19T13:23:51;23.10;99.90
5017;DHT22;2527;50.892;16.706;2023-09-19T13:26:17;23.10;99.90
5017;DHT22;2527;50.892;16.706;2023-09-19T13:28:44;23.10;99.90
5017;DHT22;2527;50.892;16.706;2023-09-19T13:31:10;23.10;99.90
5017;DHT22;2527;50.892;16.706;2023-09-19T13:33:42;23.10;99.90
5017;DHT22;2527;50.892;16.706;2023-09-19T13:36:08;23.00;99.90
5017;DHT22;2527;50.892;16.706;2023-09-19T13:38:35;23.00;99.90
5017;DHT22;2527;50.892;16.706;2023-09-19T13:41:00;23.00;99.90
5017;DHT22;2527;50.892;16.706;2023-09-19T13:43:27;23.00;99.90
5017;DHT22;2527;50.892;16.706;2023-09-19T13:45:54;23.00;99.90
5017;DHT22;2527;50.892;16.706;2023-09-19T13:48:20;22.90;99.90
5017;DHT22;2527;50.892;16.706;2023-09-19T13:50:48;22.90;99.90
5017;DHT22;2527;50.892;16.706;2023-09-19T13:53:14;22.90;99.90
5017;DHT22;2527;50.892;16.706;2023-09-19T13:55:39;22.90;99.90
5017;DHT22;2527;50.892;16.706;2023-09-19T13:58:05;22.90;99.90
5017;DHT22;2527;50.892;16.706;2023-09-19T14:00:32;22.90;99.90
5017;DHT22;2527;50.892;16.706;2023-09-19T14:03:01;22.90;99.90
5017;DHT22;2527;50.892;16.706;2023-09-19T14:05:26;22.90;99.90
5017;DHT22;2527;50.892;16.706;2023-09-19T14:07:53;22.90;99.90
5017;DHT22;2527;50.892;16.706;2023-09-19T14:10:21;22.90;99.90
5017;DHT22;2527;50.892;16.706;2023-09-19T14:12:47;22.80;99.90
5017;DHT22;2527;50.892;16.706;2023-09-19T14:15:13;22.80;99.90
5017;DHT22;2527;50.892;16.706;2023-09-19T14:17:39;22.80;99.90
5017;DHT22;2527;50.892;16.706;2023-09-19T14:20:07;22.80;99.90
5017;DHT22;2527;50.892;16.706;2023-09-19T14:22:35;22.80;99.90
5017;DHT22;2527;50.892;16.706;2023-09-19T14:25:02;22.80;99.90
5017;DHT22;2527;50.892;16.706;2023-09-19T14:27:28;22.80;99.90
5017;DHT22;2527;50.892;16.706;2023-09-19T14:29:53;22.80;99.90
5017;DHT22;2527;50.892;16.706;2023-09-19T14:32:20;22.80;99.90
5017;DHT22;2527;50.892;16.706;2023-09-19T14:34:46;22.90;99.90
5017;DHT22;2527;50.892;16.706;2023-09-19T14:37:12;22.90;99.90
5017;DHT22;2527;50.892;16.706;2023-09-19T14:39:38;22.90;99.90
5017;DHT22;2527;50.892;16.706;2023-09-19T14:42:05;22.90;99.90
5017;DHT22;2527;50.892;16.706;2023-09-19T14:44:31;22.90;99.90
5017;DHT22;2527;50.892;16.706;2023-09-19T14:46:56;22.90;99.90
5017;DHT22;2527;50.892;16.706;2023-09-19T14:49:22;22.90;99.90
5017;DHT22;2527;50.892;16.706;2023-09-19T14:51:47;22.90;99.90
5017;DHT22;2527;50.892;16.706;2023-09-19T14:54:13;22.90;99.90
5017;DHT22;2527;50.892;16.706;2023-09-19T14:56:42;22.90;99.90
5017;DHT22;2527;50.892;16.706;2023-09-19T14:59:08;22.90;99.90
5017;DHT22;2527;50.892;16.706;2023-09-19T15:01:36;22.90;99.90
5017;DHT22;2527;50.892;16.706;2023-09-19T15:04:03;22.90;99.90
5017;DHT22;2527;50.892;16.706;2023-09-19T15:06:29;22.90;99.90
5017;DHT22;2527;50.892;16.706;2023-09-19T15:08:55;22.90;99.90
5017;DHT22;2527;50.892;16.706;2023-09-19T15:11:21;22.90;99.90
5017;DHT22;2527;50.892;16.706;2023-09-19T15:13:48;22.90;99.90
5017;DHT22;2527;50.892;16.706;2023-09-19T15:16:14;22.90;99.90
5017;DHT22;2527;50.892;16.706;2023-09-19T15:18:40;22.90;99.90
5017;DHT22;2527;50.892;16.706;2023-09-19T15:21:11;22.80;99.90
5017;DHT22;2527;50.892;16.706;2023-09-19T15:23:38;22.80;99.90
5017;DHT22;2527;50.892;16.706;2023-09-19T15:26:04;22.70;99.90
5017;DHT22;2527;50.892;16.706;2023-09-19T15:28:30;22.70;99.90
5017;DHT22;2527;50.892;16.706;2023-09-19T15:33:25;22.70;99.90
5017;DHT22;2527;50.892;16.706;2023-09-19T15:35:59;22.70;99.90
5017;DHT22;2527;50.892;16.706;2023-09-19T15:38:25;22.70;99.90
5017;DHT22;2527;50.892;16.706;2023-09-19T15:40:51;22.70;99.90
5017;DHT22;2527;50.892;16.706;2023-09-19T15:43:17;22.70;99.90
5017;DHT22;2527;50.892;16.706;2023-09-19T15:45:43;22.70;99.90
5017;DHT22;2527;50.892;16.706;2023-09-19T15:48:09;22.70;99.90
5017;DHT22;2527;50.892;16.706;2023-09-19T15:50:34;22.70;99.90
5017;DHT22;2527;50.892;16.706;2023-09-19T15:53:01;22.70;99.90
5017;DHT22;2527;50.892;16.706;2023-09-19T15:55:27;22.70;99.90
5017;DHT22;2527;50.892;16.706;2023-09-19T15:57:53;22.70;99.90
5017;DHT22;2527;50.892;16.706;2023-09-19T16:00:18;22.70;99.90
5017;DHT22;2527;50.892;16.706;2023-09-19T16:02:45;22.60;99.90
5017;DHT22;2527;50.892;16.706;2023-09-19T16:05:10;22.60;99.90
5017;DHT22;2527;50.892;16.706;2023-09-19T16:07:37;22.60;99.90
5017;DHT22;2527;50.892;16.706;2023-09-19T16:10:03;22.50;99.90
5017;DHT22;2527;50.892;16.706;2023-09-19T16:12:29;22.50;99.90
5017;DHT22;2527;50.892;16.706;2023-09-19T16:14:55;22.40;99.90
5017;DHT22;2527;50.892;16.706;2023-09-19T16:17:21;22.40;99.90
5017;DHT22;2527;50.892;16.706;2023-09-19T16:19:47;22.40;99.90
5017;DHT22;2527;50.892;16.706;2023-09-19T16:22:13;22.30;99.90
5017;DHT22;2527;50.892;16.706;2023-09-19T16:24:39;22.30;99.90
5017;DHT22;2527;50.892;16.706;2023-09-19T16:27:05;22.20;99.90
5017;DHT22;2527;50.892;16.706;2023-09-19T16:29:31;22.10;99.90
5017;DHT22;2527;50.892;16.706;2023-09-19T16:31:57;22.10;99.90
5017;DHT22;2527;50.892;16.706;2023-09-19T16:34:23;22.00;99.90
5017;DHT22;2527;50.892;16.706;2023-09-19T16:36:48;21.90;99.90
5017;DHT22;2527;50.892;16.706;2023-09-19T16:39:15;21.80;99.90
5017;DHT22;2527;50.892;16.706;2023-09-19T16:41:42;21.70;99.90
5017;DHT22;2527;50.892;16.706;2023-09-19T16:44:08;21.60;99.90
5017;DHT22;2527;50.892;16.706;2023-09-19T16:46:34;21.60;99.90